createdAt,value
2022-10-19T00:00:15.546Z,11.44
2022-10-19T00:01:15.565Z,11.60
2022-10-19T00:02:15.615Z,11.61
2022-10-19T00:03:18.273Z,11.49
2022-10-19T00:04:16.518Z,11.58
2022-10-19T00:05:15.498Z,11.42
2022-10-19T00:06:15.505Z,11.44
2022-10-19T00:07:15.483Z,11.37
2022-10-19T00:08:15.476Z,11.57
2022-10-19T00:09:15.465Z,11.54
2022-10-19T00:10:15.445Z,11.61
2022-10-19T00:11:15.457Z,11.62
2022-10-19T00:12:15.491Z,11.60
2022-10-19T00:13:15.419Z,11.60
2022-10-19T00:14:15.404Z,11.55
2022-10-19T00:15:15.399Z,11.49
2022-10-19T00:16:15.398Z,11.40
2022-10-19T00:17:15.395Z,11.43
2022-10-19T00:18:15.377Z,11.39
2022-10-19T00:19:15.367Z,11.35
2022-10-19T00:20:15.351Z,11.22
2022-10-19T00:21:15.340Z,11.21
2022-10-19T00:22:15.340Z,11.32
2022-10-19T00:23:15.353Z,11.24
2022-10-19T00:24:15.312Z,11.37
2022-10-19T00:25:15.300Z,11.46
2022-10-19T00:26:15.303Z,11.42
2022-10-19T00:27:15.289Z,11.51
2022-10-19T00:28:15.287Z,11.62
2022-10-19T00:29:15.355Z,11.67
2022-10-19T00:30:15.254Z,11.61
2022-10-19T00:31:15.248Z,11.75
2022-10-19T00:32:15.223Z,11.78
2022-10-19T00:33:15.249Z,11.69
2022-10-19T00:34:15.200Z,11.80
2022-10-19T00:35:15.200Z,11.67
2022-10-19T00:36:15.187Z,11.79
2022-10-19T00:37:15.185Z,11.70
2022-10-19T00:38:15.196Z,11.64
2022-10-19T00:39:15.156Z,11.60
2022-10-19T00:40:15.154Z,11.54
2022-10-19T00:41:15.149Z,11.44
2022-10-19T00:42:16.146Z,11.51
2022-10-19T00:43:15.121Z,11.52
2022-10-19T00:44:15.119Z,11.46
2022-10-19T00:45:15.119Z,11.47
2022-10-19T00:46:15.097Z,11.46
2022-10-19T00:47:15.090Z,11.40
2022-10-19T00:48:15.117Z,11.47
2022-10-19T00:49:15.087Z,11.33
2022-10-19T00:50:15.074Z,11.36
2022-10-19T00:51:15.146Z,11.39
2022-10-19T00:52:15.045Z,11.43
2022-10-19T00:53:15.026Z,11.35
2022-10-19T00:54:15.022Z,11.32
2022-10-19T00:55:15.014Z,11.25
2022-10-19T00:56:15.010Z,11.25
2022-10-19T00:57:14.987Z,11.21
2022-10-19T00:58:14.982Z,11.14
2022-10-19T00:59:14.982Z,11.15
2022-10-19T01:00:14.970Z,11.06
2022-10-19T01:01:15.030Z,11.14
2022-10-19T01:02:14.956Z,11.06
2022-10-19T01:03:14.930Z,11.02
2022-10-19T01:04:14.945Z,10.91
2022-10-19T01:05:14.903Z,10.84
2022-10-19T01:06:14.901Z,10.81
2022-10-19T01:07:14.884Z,10.78
2022-10-19T01:08:14.883Z,10.81
2022-10-19T01:09:14.878Z,10.67
2022-10-19T01:10:14.865Z,10.59
2022-10-19T01:11:14.862Z,10.66
2022-10-19T01:12:14.835Z,10.63
2022-10-19T01:13:14.820Z,10.63
2022-10-19T01:14:14.814Z,10.51
2022-10-19T01:15:14.817Z,10.55
2022-10-19T01:16:14.798Z,10.47
2022-10-19T01:17:14.804Z,10.48
2022-10-19T01:18:14.779Z,10.47
2022-10-19T01:19:14.760Z,10.51
2022-10-19T01:20:14.774Z,10.45
2022-10-19T01:21:14.744Z,10.47
2022-10-19T01:22:14.737Z,10.42
2022-10-19T01:23:14.724Z,10.29
2022-10-19T01:24:14.714Z,10.33
2022-10-19T01:25:14.704Z,10.44
2022-10-19T01:26:14.714Z,10.44
2022-10-19T01:27:14.686Z,10.47
2022-10-19T01:28:14.672Z,10.47
2022-10-19T01:29:14.687Z,10.42
2022-10-19T01:30:15.650Z,10.42
2022-10-19T01:31:14.662Z,10.32
2022-10-19T01:32:14.639Z,10.32
2022-10-19T01:33:14.631Z,10.23
2022-10-19T01:34:14.613Z,10.22
2022-10-19T01:35:14.591Z,10.18
2022-10-19T01:36:14.593Z,10.25
2022-10-19T01:37:14.593Z,10.32
2022-10-19T01:38:14.565Z,10.33
2022-10-19T01:39:14.561Z,10.27
2022-10-19T01:40:14.567Z,10.17
2022-10-19T01:41:14.552Z,10.29
2022-10-19T01:42:14.530Z,10.27
2022-10-19T01:43:14.530Z,10.14
2022-10-19T01:44:14.519Z,10.04
2022-10-19T01:45:14.525Z,10.18
2022-10-19T01:46:14.496Z,10.15
2022-10-19T01:47:14.481Z,10.07
2022-10-19T01:48:14.472Z,10.08
2022-10-19T01:49:14.463Z,10.15
2022-10-19T01:50:15.473Z,10.08
2022-10-19T01:51:14.458Z,10.02
2022-10-19T01:52:14.430Z,10.18
2022-10-19T01:53:14.430Z,10.23
2022-10-19T01:54:14.419Z,10.23
2022-10-19T01:55:14.404Z,10.33
2022-10-19T01:56:14.413Z,10.41
2022-10-19T01:57:14.392Z,10.52
2022-10-19T01:58:14.388Z,10.56
2022-10-19T01:59:14.362Z,10.61
2022-10-19T02:00:14.350Z,10.63
2022-10-19T02:01:14.347Z,10.79
2022-10-19T02:02:14.361Z,10.73
2022-10-19T02:03:14.318Z,10.81
2022-10-19T02:04:14.318Z,10.85
2022-10-19T02:05:14.306Z,10.88
2022-10-19T02:06:14.316Z,10.79
2022-10-19T02:07:14.274Z,10.86
2022-10-19T02:08:14.286Z,10.82
2022-10-19T02:09:14.267Z,10.91
2022-10-19T02:11:14.249Z,10.82
2022-10-19T02:12:14.236Z,10.82
2022-10-19T02:13:14.231Z,11.00
2022-10-19T02:14:14.218Z,10.91
2022-10-19T02:15:14.203Z,10.82
2022-10-19T02:16:14.201Z,10.73
2022-10-19T02:17:14.181Z,10.82
2022-10-19T02:18:14.204Z,10.70
2022-10-19T02:19:14.205Z,10.70
2022-10-19T02:20:14.153Z,10.79
2022-10-19T02:21:14.144Z,10.59
2022-10-19T02:22:14.138Z,10.59
2022-10-19T02:23:14.156Z,10.53
2022-10-19T02:24:14.113Z,10.51
2022-10-19T02:25:14.112Z,10.48
2022-10-19T02:26:14.099Z,10.63
2022-10-19T02:27:14.091Z,10.61
2022-10-19T02:28:14.098Z,10.66
2022-10-19T02:29:14.060Z,10.68
2022-10-19T02:30:14.053Z,10.73
2022-10-19T02:31:14.041Z,10.74
2022-10-19T02:32:14.049Z,10.84
2022-10-19T02:33:14.022Z,10.73
2022-10-19T02:34:14.003Z,10.89
2022-10-19T02:35:14.016Z,10.79
2022-10-19T02:36:13.987Z,10.78
2022-10-19T02:37:14.027Z,10.84
2022-10-19T02:38:13.969Z,10.81
2022-10-19T02:39:13.980Z,10.99
2022-10-19T02:40:13.947Z,10.76
2022-10-19T02:41:13.924Z,10.81
2022-10-19T02:42:14.925Z,10.78
2022-10-19T02:43:13.919Z,10.73
2022-10-19T02:44:13.937Z,10.68
2022-10-19T02:45:13.899Z,10.71
2022-10-19T02:46:45.823Z,10.74
2022-10-19T02:47:13.877Z,10.55
2022-10-19T02:48:14.870Z,10.48
2022-10-19T02:49:13.864Z,10.55
2022-10-19T02:50:13.873Z,10.42
2022-10-19T02:51:13.832Z,10.47
2022-10-19T02:52:13.821Z,10.45
2022-10-19T02:53:13.847Z,10.48
2022-10-19T02:54:13.826Z,10.36
2022-10-19T02:55:14.799Z,10.41
2022-10-19T02:56:13.815Z,10.23
2022-10-19T02:57:13.782Z,10.26
2022-10-19T02:58:13.770Z,10.18
2022-10-19T02:59:13.783Z,10.26
2022-10-19T03:00:13.751Z,10.33
2022-10-19T03:01:13.762Z,10.25
2022-10-19T03:02:13.738Z,10.15
2022-10-19T03:03:13.718Z,10.33
2022-10-19T03:04:13.724Z,10.38
2022-10-19T03:05:13.712Z,10.27
2022-10-19T03:06:13.700Z,10.32
2022-10-19T03:07:13.687Z,10.34
2022-10-19T03:08:13.682Z,10.45
2022-10-19T03:09:13.680Z,10.41
2022-10-19T03:10:13.676Z,10.41
2022-10-19T03:11:13.653Z,10.41
2022-10-19T03:12:13.641Z,10.45
2022-10-19T03:13:13.632Z,10.45
2022-10-19T03:14:13.622Z,10.55
2022-10-19T03:15:13.605Z,10.48
2022-10-19T03:16:13.631Z,10.47
2022-10-19T03:17:13.583Z,10.63
2022-10-19T03:18:13.595Z,10.64
2022-10-19T03:19:13.568Z,10.78
2022-10-19T03:20:13.562Z,10.53
2022-10-19T03:21:13.551Z,10.41
2022-10-19T03:22:13.538Z,10.40
2022-10-19T03:23:13.558Z,10.38
2022-10-19T03:24:13.517Z,10.38
2022-10-19T03:25:13.516Z,10.45
2022-10-19T03:26:13.483Z,10.41
2022-10-19T03:27:13.490Z,10.33
2022-10-19T03:28:13.491Z,10.27
2022-10-19T03:29:13.478Z,10.33
2022-10-19T03:30:13.481Z,10.23
2022-10-19T03:31:13.441Z,10.20
2022-10-19T03:32:13.496Z,10.26
2022-10-19T03:33:13.437Z,10.25
2022-10-19T03:34:13.415Z,10.23
2022-10-19T03:35:13.425Z,10.14
2022-10-19T03:36:13.397Z,10.34
2022-10-19T03:37:13.390Z,10.20
2022-10-19T03:38:13.378Z,10.33
2022-10-19T03:39:13.387Z,10.38
2022-10-19T03:40:13.359Z,10.29
2022-10-19T03:41:13.350Z,10.20
2022-10-19T03:42:13.352Z,10.22
2022-10-19T03:43:13.337Z,10.22
2022-10-19T03:44:13.326Z,10.27
2022-10-19T03:45:13.314Z,10.27
2022-10-19T03:46:13.297Z,10.23
2022-10-19T03:47:13.304Z,10.26
2022-10-19T03:48:13.289Z,10.22
2022-10-19T03:49:13.265Z,10.30
2022-10-19T03:50:13.276Z,10.25
2022-10-19T03:51:13.247Z,10.22
2022-10-19T03:52:13.245Z,10.27
2022-10-19T03:53:13.263Z,10.26
2022-10-19T03:54:13.227Z,10.34
2022-10-19T03:55:13.227Z,10.47
2022-10-19T03:56:13.202Z,10.44
2022-10-19T03:57:13.190Z,10.27
2022-10-19T03:58:13.185Z,10.09
2022-10-19T03:59:13.171Z,9.91
2022-10-19T04:00:13.171Z,9.91
2022-10-19T04:01:13.225Z,9.84
2022-10-19T04:02:13.142Z,9.87
2022-10-19T04:03:13.129Z,9.81
2022-10-19T04:04:13.136Z,9.65
2022-10-19T04:05:13.106Z,9.57
2022-10-19T04:06:15.762Z,9.53
2022-10-19T04:07:13.099Z,9.50
2022-10-19T04:08:13.083Z,9.51
2022-10-19T04:09:13.092Z,9.42
2022-10-19T04:10:13.050Z,9.38
2022-10-19T04:11:13.046Z,9.46
2022-10-19T04:12:13.052Z,9.43
2022-10-19T04:13:13.042Z,9.38
2022-10-19T04:14:19.023Z,9.33
2022-10-19T04:15:14.019Z,9.42
2022-10-19T04:16:12.998Z,9.47
2022-10-19T04:17:12.994Z,9.53
2022-10-19T04:18:12.979Z,9.56
2022-10-19T04:19:12.975Z,9.61
2022-10-19T04:20:12.956Z,9.54
2022-10-19T04:21:12.965Z,9.51
2022-10-19T04:22:12.965Z,9.43
2022-10-19T04:23:12.950Z,9.50
2022-10-19T04:24:12.914Z,9.48
2022-10-19T04:25:12.916Z,9.47
2022-10-19T04:26:12.914Z,9.36
2022-10-19T04:27:12.909Z,9.39
2022-10-19T04:28:12.874Z,9.47
2022-10-19T04:29:12.914Z,9.33
2022-10-19T04:30:12.861Z,9.28
2022-10-19T04:31:12.848Z,9.35
2022-10-19T04:32:12.866Z,9.35
2022-10-19T04:33:12.831Z,9.39
2022-10-19T04:34:12.827Z,9.31
2022-10-19T04:35:12.812Z,9.28
2022-10-19T04:36:12.794Z,9.24
2022-10-19T04:37:12.800Z,9.32
2022-10-19T04:38:12.781Z,9.33
2022-10-19T04:39:12.787Z,9.23
2022-10-19T04:40:15.099Z,9.28
2022-10-19T04:41:13.755Z,9.24
2022-10-19T04:42:12.757Z,9.13
2022-10-19T04:43:12.730Z,9.05
2022-10-19T04:44:12.741Z,9.10
2022-10-19T04:45:12.709Z,9.01
2022-10-19T04:46:12.698Z,8.98
2022-10-19T04:47:12.689Z,9.11
2022-10-19T04:48:15.052Z,9.08
2022-10-19T04:49:16.461Z,9.15
2022-10-19T04:50:13.662Z,8.99
2022-10-19T04:51:12.676Z,9.01
2022-10-19T04:52:12.648Z,8.98
2022-10-19T04:53:12.836Z,8.96
2022-10-19T04:54:12.621Z,8.87
2022-10-19T04:55:12.613Z,8.86
2022-10-19T04:56:12.615Z,8.76
2022-10-19T04:57:12.589Z,8.80
2022-10-19T04:58:12.581Z,8.65
2022-10-19T04:59:12.590Z,8.79
2022-10-19T05:00:12.563Z,8.80
2022-10-19T05:01:12.651Z,8.74
2022-10-19T05:02:12.536Z,8.77
2022-10-19T05:03:12.526Z,8.73
2022-10-19T05:04:12.553Z,8.74
2022-10-19T05:05:12.526Z,8.76
2022-10-19T05:06:12.501Z,8.80
2022-10-19T05:07:12.481Z,8.79
2022-10-19T05:08:12.567Z,8.81
2022-10-19T05:09:12.474Z,8.83
2022-10-19T05:10:12.482Z,8.76
2022-10-19T05:11:12.459Z,8.71
2022-10-19T05:12:12.445Z,8.76
2022-10-19T05:13:12.454Z,8.79
2022-10-19T05:14:12.444Z,8.76
2022-10-19T05:15:12.415Z,8.77
2022-10-19T05:16:12.400Z,8.66
2022-10-19T05:17:12.388Z,8.59
2022-10-19T05:18:12.375Z,8.59
2022-10-19T05:19:12.388Z,8.59
2022-10-19T05:20:12.356Z,8.66
2022-10-19T05:21:12.343Z,8.73
2022-10-19T05:22:12.362Z,8.61
2022-10-19T05:23:12.336Z,8.63
2022-10-19T05:24:12.314Z,8.79
2022-10-19T05:25:12.972Z,8.63
2022-10-19T05:26:12.294Z,8.70
2022-10-19T05:27:12.311Z,8.63
2022-10-19T05:28:12.289Z,8.70
2022-10-19T05:29:12.300Z,8.63
2022-10-19T05:30:12.258Z,8.65
2022-10-19T05:31:12.250Z,8.65
2022-10-19T05:32:12.228Z,8.65
2022-10-19T05:33:12.248Z,8.70
2022-10-19T05:34:12.217Z,8.76
2022-10-19T05:35:12.197Z,8.77
2022-10-19T05:36:12.186Z,8.87
2022-10-19T05:37:12.182Z,8.80
2022-10-19T05:38:12.185Z,8.73
2022-10-19T05:39:12.154Z,8.70
2022-10-19T05:40:12.157Z,8.68
2022-10-19T05:41:12.143Z,8.68
2022-10-19T05:42:12.162Z,8.71
2022-10-19T05:43:12.144Z,8.80
2022-10-19T05:44:12.113Z,8.77
2022-10-19T05:45:12.106Z,8.91
2022-10-19T05:46:12.099Z,8.81
2022-10-19T05:47:12.094Z,8.73
2022-10-19T05:48:12.101Z,8.83
2022-10-19T05:49:12.072Z,8.74
2022-10-19T05:50:12.076Z,8.63
2022-10-19T05:51:12.045Z,8.68
2022-10-19T05:52:12.034Z,8.59
2022-10-19T05:53:12.043Z,8.70
2022-10-19T05:54:12.024Z,8.70
2022-10-19T05:55:12.002Z,8.81
2022-10-19T05:56:11.994Z,8.87
2022-10-19T05:57:11.985Z,8.79
2022-10-19T05:58:11.992Z,8.80
2022-10-19T05:59:11.984Z,8.80
2022-10-19T06:00:11.964Z,8.71
2022-10-19T06:01:11.941Z,8.63
2022-10-19T06:02:11.952Z,8.62
2022-10-19T06:03:11.940Z,8.63
2022-10-19T06:04:12.004Z,8.65
2022-10-19T06:05:11.907Z,8.62
2022-10-19T06:06:11.906Z,8.53
2022-10-19T06:07:11.882Z,8.62
2022-10-19T06:08:11.880Z,8.56
2022-10-19T06:09:11.909Z,8.68
2022-10-19T06:10:11.864Z,8.62
2022-10-19T06:11:11.856Z,8.59
2022-10-19T06:12:11.841Z,8.79
2022-10-19T06:13:11.822Z,8.84
2022-10-19T06:14:11.843Z,8.81
2022-10-19T06:15:11.815Z,8.65
2022-10-19T06:16:11.821Z,8.80
2022-10-19T06:17:11.801Z,8.74
2022-10-19T06:18:11.784Z,8.86
2022-10-19T06:19:11.763Z,8.91
2022-10-19T06:20:11.770Z,8.83
2022-10-19T06:21:11.751Z,8.83
2022-10-19T06:22:11.760Z,8.77
2022-10-19T06:23:11.741Z,8.91
2022-10-19T06:24:11.714Z,8.92
2022-10-19T06:25:11.723Z,8.80
2022-10-19T06:26:11.700Z,8.76
2022-10-19T06:27:11.733Z,8.81
2022-10-19T06:28:11.685Z,8.68
2022-10-19T06:29:11.667Z,8.87
2022-10-19T06:30:11.683Z,8.77
2022-10-19T06:31:11.650Z,8.84
2022-10-19T06:32:11.653Z,8.92
2022-10-19T06:33:11.645Z,8.95
2022-10-19T06:34:11.654Z,8.84
2022-10-19T06:35:11.623Z,8.92
2022-10-19T06:36:11.610Z,8.77
2022-10-19T06:37:11.590Z,8.76
2022-10-19T06:38:11.607Z,8.86
2022-10-19T06:39:11.593Z,8.74
2022-10-19T06:40:11.612Z,8.81
2022-10-19T06:41:11.557Z,8.79
2022-10-19T06:42:11.538Z,8.91
2022-10-19T06:43:11.537Z,8.89
2022-10-19T06:44:11.547Z,8.92
2022-10-19T06:45:11.511Z,8.98
2022-10-19T06:46:11.517Z,8.96
2022-10-19T06:47:11.503Z,9.05
2022-10-19T06:48:11.487Z,8.99
2022-10-19T06:49:11.479Z,9.04
2022-10-19T06:50:11.478Z,8.99
2022-10-19T06:51:11.464Z,9.10
2022-10-19T06:52:11.445Z,9.04
2022-10-19T06:53:11.440Z,9.11
2022-10-19T06:54:11.443Z,9.08
2022-10-19T06:55:11.444Z,9.11
2022-10-19T06:56:11.449Z,9.28
2022-10-19T06:57:11.508Z,9.23
2022-10-19T06:58:11.380Z,9.28
2022-10-19T06:59:11.367Z,9.21
2022-10-19T07:00:11.383Z,9.31
2022-10-19T07:01:11.403Z,9.47
2022-10-19T07:02:11.353Z,9.47
2022-10-19T07:03:11.334Z,9.40
2022-10-19T07:04:11.330Z,9.24
2022-10-19T07:05:11.314Z,9.24
2022-10-19T07:06:11.321Z,9.15
2022-10-19T07:07:11.386Z,9.04
2022-10-19T07:08:11.303Z,9.14
2022-10-19T07:09:11.275Z,9.13
2022-10-19T07:10:11.299Z,9.15
2022-10-19T07:11:11.266Z,9.11
2022-10-19T07:12:11.259Z,9.05
2022-10-19T07:13:11.327Z,9.17
2022-10-19T07:14:11.231Z,9.18
2022-10-19T07:15:11.257Z,9.29
2022-10-19T07:16:15.788Z,9.26
2022-10-19T07:17:12.267Z,9.26
2022-10-19T07:18:11.219Z,9.13
2022-10-19T07:19:11.178Z,9.18
2022-10-19T07:20:11.166Z,9.23
2022-10-19T07:21:11.166Z,9.31
2022-10-19T07:22:13.523Z,9.20
2022-10-19T07:23:12.131Z,9.26
2022-10-19T07:24:11.119Z,9.24
2022-10-19T07:25:11.132Z,9.17
2022-10-19T07:26:11.133Z,9.33
2022-10-19T07:27:11.199Z,9.36
2022-10-19T07:28:11.100Z,9.48
2022-10-19T07:29:11.080Z,9.36
2022-10-19T07:30:11.072Z,9.42
2022-10-19T07:31:11.063Z,9.33
2022-10-19T07:32:11.051Z,9.24
2022-10-19T07:33:11.113Z,9.20
2022-10-19T07:34:11.028Z,9.11
2022-10-19T07:35:11.019Z,9.26
2022-10-19T07:36:11.013Z,9.18
2022-10-19T07:37:11.043Z,9.17
2022-10-19T07:38:10.985Z,9.18
2022-10-19T07:39:10.968Z,9.24
2022-10-19T07:40:10.963Z,9.32
2022-10-19T07:41:10.956Z,9.33
2022-10-19T07:42:10.987Z,9.38
2022-10-19T07:43:10.931Z,9.35
2022-10-19T07:44:12.161Z,9.29
2022-10-19T07:45:10.925Z,9.23
2022-10-19T07:46:10.903Z,9.32
2022-10-19T07:47:10.936Z,9.32
2022-10-19T07:48:10.904Z,9.24
2022-10-19T07:49:10.872Z,9.32
2022-10-19T07:50:10.863Z,9.20
2022-10-19T07:51:10.847Z,9.15
2022-10-19T07:52:10.843Z,9.13
2022-10-19T07:53:10.863Z,9.14
2022-10-19T07:54:10.827Z,9.14
2022-10-19T07:55:10.824Z,9.02
2022-10-19T07:56:10.808Z,9.11
2022-10-19T07:57:10.814Z,9.05
2022-10-19T07:58:10.788Z,9.01
2022-10-19T07:59:10.802Z,9.20
2022-10-19T08:00:10.766Z,9.11
2022-10-19T08:01:10.763Z,9.18
2022-10-19T08:02:10.834Z,9.31
2022-10-19T08:05:12.349Z,9.35
2022-10-19T08:06:11.727Z,9.35
2022-10-19T08:07:10.700Z,9.33
2022-10-19T08:08:10.689Z,9.35
2022-10-19T08:09:15.590Z,9.20
2022-10-19T08:10:10.670Z,9.39
2022-10-19T08:11:10.663Z,9.38
2022-10-19T08:12:14.801Z,9.21
2022-10-19T08:13:10.710Z,9.39
2022-10-19T08:14:10.632Z,9.36
2022-10-19T08:15:10.630Z,9.35
2022-10-19T08:16:10.630Z,9.46
2022-10-19T08:17:10.611Z,9.47
2022-10-19T08:18:10.614Z,9.42
2022-10-19T08:19:10.608Z,9.42
2022-10-19T08:20:10.625Z,9.42
2022-10-19T08:21:10.564Z,9.40
2022-10-19T08:22:10.581Z,9.39
2022-10-19T08:23:10.569Z,9.43
2022-10-19T08:24:10.533Z,9.42
2022-10-19T08:25:10.534Z,9.33
2022-10-19T08:26:10.519Z,9.51
2022-10-19T08:27:10.519Z,9.43
2022-10-19T08:28:10.527Z,9.36
2022-10-19T08:29:10.487Z,9.40
2022-10-19T08:30:10.477Z,9.39
2022-10-19T08:31:10.474Z,9.35
2022-10-19T08:32:10.467Z,9.32
2022-10-19T08:33:10.478Z,9.35
2022-10-19T08:34:10.463Z,9.31
2022-10-19T08:35:10.968Z,9.23
2022-10-19T08:36:10.450Z,9.31
2022-10-19T08:37:20.116Z,9.26
2022-10-19T08:38:10.397Z,9.39
2022-10-19T08:39:10.395Z,9.40
2022-10-19T08:40:10.395Z,9.51
2022-10-19T08:41:10.362Z,9.38
2022-10-19T08:42:10.354Z,9.43
2022-10-19T08:43:10.373Z,9.64
2022-10-19T08:44:10.407Z,9.72
2022-10-19T08:45:10.332Z,9.76
2022-10-19T08:46:42.220Z,9.65
2022-10-19T08:47:12.323Z,9.72
2022-10-19T08:48:10.308Z,9.61
2022-10-19T08:49:10.287Z,9.64
2022-10-19T08:50:10.287Z,9.79
2022-10-19T08:51:10.286Z,9.96
2022-10-19T08:52:10.276Z,10.11
2022-10-19T08:53:10.255Z,10.32
2022-10-19T08:54:10.242Z,10.48
2022-10-19T08:55:10.260Z,10.67
2022-10-19T08:56:12.408Z,10.85
2022-10-19T08:57:11.231Z,11.10
2022-10-19T08:58:10.199Z,11.00
2022-10-19T08:59:10.203Z,11.06
2022-10-19T09:00:10.176Z,11.10
2022-10-19T09:01:10.178Z,10.92
2022-10-19T09:02:10.161Z,10.96
2022-10-19T09:03:10.176Z,10.92
2022-10-19T09:04:10.126Z,10.85
2022-10-19T09:05:10.163Z,11.00
2022-10-19T09:06:10.118Z,11.11
2022-10-19T09:07:10.103Z,11.49
2022-10-19T09:08:13.043Z,11.83
2022-10-19T09:09:11.088Z,11.98
2022-10-19T09:10:10.098Z,12.34
2022-10-19T09:11:10.068Z,12.41
2022-10-19T09:12:10.052Z,12.41
2022-10-19T09:13:10.076Z,12.53
2022-10-19T09:14:10.032Z,12.86
2022-10-19T09:15:10.017Z,12.86
2022-10-19T09:16:10.020Z,12.67
2022-10-19T09:17:09.999Z,12.95
2022-10-19T09:18:10.007Z,13.11
2022-10-19T09:19:09.982Z,13.33
2022-10-19T09:20:09.970Z,13.49
2022-10-19T09:21:09.951Z,13.39
2022-10-19T09:22:09.959Z,13.39
2022-10-19T09:23:13.343Z,13.33
2022-10-19T09:24:10.954Z,13.39
2022-10-19T09:25:09.925Z,13.48
2022-10-19T09:26:09.915Z,13.55
2022-10-19T09:27:09.902Z,13.51
2022-10-19T09:28:09.888Z,13.33
2022-10-19T09:29:09.897Z,13.28
2022-10-19T09:30:09.866Z,13.38
2022-10-19T09:31:09.850Z,13.19
2022-10-19T09:32:09.856Z,13.11
2022-10-19T09:33:12.026Z,13.12
2022-10-19T09:34:10.831Z,13.10
2022-10-19T09:35:09.833Z,13.15
2022-10-19T09:36:18.213Z,13.15
2022-10-19T09:37:14.325Z,13.19
2022-10-19T09:38:09.786Z,13.17
2022-10-19T09:39:09.776Z,13.04
2022-10-19T09:40:09.790Z,13.10
2022-10-19T09:41:09.742Z,13.17
2022-10-19T09:42:09.752Z,13.15
2022-10-19T09:43:09.732Z,13.22
2022-10-19T09:44:09.726Z,13.32
2022-10-19T09:45:09.710Z,13.29
2022-10-19T09:46:18.728Z,13.36
2022-10-19T09:47:13.639Z,13.44
2022-10-19T09:48:13.105Z,13.59
2022-10-19T09:49:10.669Z,13.78
2022-10-19T09:50:09.659Z,13.59
2022-10-19T09:51:09.662Z,13.59
2022-10-19T09:52:09.637Z,13.55
2022-10-19T09:53:09.626Z,13.45
2022-10-19T09:54:09.620Z,13.39
2022-10-19T09:55:09.606Z,13.42
2022-10-19T09:56:09.609Z,13.30
2022-10-19T09:57:09.580Z,13.26
2022-10-19T09:58:09.609Z,13.36
2022-10-19T09:59:09.568Z,13.45
2022-10-19T10:00:09.553Z,13.57
2022-10-19T10:01:09.551Z,13.52
2022-10-19T10:02:09.566Z,13.52
2022-10-19T10:03:09.506Z,13.66
2022-10-19T10:04:09.517Z,13.67
2022-10-19T10:05:09.517Z,13.81
2022-10-19T10:06:09.483Z,13.78
2022-10-19T10:07:09.495Z,13.89
2022-10-19T10:08:09.475Z,13.91
2022-10-19T10:09:09.536Z,13.82
2022-10-19T10:10:09.498Z,13.87
2022-10-19T10:11:09.433Z,13.75
2022-10-19T10:12:09.430Z,13.69
2022-10-19T10:13:09.416Z,13.81
2022-10-19T10:14:10.065Z,13.85
2022-10-19T10:15:09.405Z,13.73
2022-10-19T10:16:09.381Z,13.84
2022-10-19T10:17:09.383Z,13.96
2022-10-19T10:18:09.389Z,13.85
2022-10-19T10:19:09.362Z,14.00
2022-10-19T10:20:09.365Z,13.92
2022-10-19T10:21:09.370Z,13.87
2022-10-19T10:22:09.334Z,13.88
2022-10-19T10:23:09.323Z,14.00
2022-10-19T10:24:09.349Z,13.92
2022-10-19T10:25:09.308Z,13.96
2022-10-19T10:26:09.288Z,13.89
2022-10-19T10:27:09.283Z,13.87
2022-10-19T10:28:09.278Z,14.02
2022-10-19T10:29:09.286Z,14.10
2022-10-19T10:30:09.261Z,14.36
2022-10-19T10:31:09.256Z,14.45
2022-10-19T10:32:09.254Z,14.40
2022-10-19T10:33:21.117Z,14.28
2022-10-19T10:34:22.599Z,14.24
2022-10-19T10:35:11.215Z,14.22
2022-10-19T10:36:09.221Z,14.17
2022-10-19T10:37:09.187Z,14.27
2022-10-19T10:38:09.172Z,14.42
2022-10-19T10:39:09.161Z,14.46
2022-10-19T10:40:09.147Z,14.68
2022-10-19T10:41:09.169Z,14.70
2022-10-19T10:42:09.131Z,14.68
2022-10-19T10:43:09.114Z,14.62
2022-10-19T10:44:09.099Z,14.50
2022-10-19T10:45:09.091Z,14.25
2022-10-19T10:46:09.095Z,14.21
2022-10-19T10:47:09.097Z,14.45
2022-10-19T10:48:09.076Z,14.35
2022-10-19T10:49:09.062Z,14.62
2022-10-19T10:50:09.071Z,14.70
2022-10-19T10:51:09.055Z,14.84
2022-10-19T10:52:09.059Z,14.61
2022-10-19T10:53:09.030Z,14.72
2022-10-19T10:54:09.014Z,14.69
2022-10-19T10:55:09.005Z,14.57
2022-10-19T10:56:08.979Z,14.21
2022-10-19T10:57:09.126Z,14.37
2022-10-19T10:58:08.980Z,14.28
2022-10-19T10:59:08.967Z,14.45
2022-10-19T11:00:08.965Z,14.42
2022-10-19T11:01:08.939Z,14.40
2022-10-19T11:02:09.001Z,14.45
2022-10-19T11:03:08.922Z,14.24
2022-10-19T11:04:08.926Z,14.29
2022-10-19T11:05:08.905Z,14.32
2022-10-19T11:06:08.898Z,14.46
2022-10-19T11:07:08.882Z,14.65
2022-10-19T11:08:08.891Z,14.57
2022-10-19T11:09:08.933Z,14.65
2022-10-19T11:10:08.848Z,14.64
2022-10-19T11:11:08.825Z,14.80
2022-10-19T11:12:09.844Z,14.69
2022-10-19T11:13:08.812Z,14.72
2022-10-19T11:14:08.851Z,14.69
2022-10-19T11:15:08.819Z,14.60
2022-10-19T11:16:08.793Z,14.46
2022-10-19T11:17:08.786Z,14.51
2022-10-19T11:18:08.807Z,14.58
2022-10-19T11:19:08.818Z,14.50
2022-10-19T11:20:08.758Z,14.47
2022-10-19T11:21:08.754Z,14.37
2022-10-19T11:22:08.725Z,14.37
2022-10-19T11:23:08.721Z,14.52
2022-10-19T11:24:08.721Z,14.42
2022-10-19T11:25:08.713Z,14.39
2022-10-19T11:26:08.690Z,14.25
2022-10-19T11:27:08.670Z,14.43
2022-10-19T11:28:08.669Z,14.28
2022-10-19T11:29:08.670Z,14.45
2022-10-19T11:30:08.662Z,14.40
2022-10-19T11:31:08.633Z,14.54
2022-10-19T11:32:09.554Z,14.52
2022-10-19T11:33:08.597Z,14.52
2022-10-19T11:34:08.598Z,14.43
2022-10-19T11:35:08.603Z,14.51
2022-10-19T11:36:08.584Z,14.43
2022-10-19T11:37:08.575Z,14.37
2022-10-19T11:38:19.753Z,14.52
2022-10-19T11:39:09.572Z,14.64
2022-10-19T11:40:08.537Z,14.72
2022-10-19T11:41:23.869Z,14.64
2022-10-19T11:42:10.528Z,14.54
2022-10-19T11:43:08.517Z,14.50
2022-10-19T11:44:08.512Z,14.40
2022-10-19T11:45:09.097Z,14.42
2022-10-19T11:46:09.945Z,14.29
2022-10-19T11:47:08.467Z,14.37
2022-10-19T11:48:08.453Z,14.51
2022-10-19T11:49:08.465Z,14.35
2022-10-19T11:51:21.009Z,14.50
2022-10-19T11:52:10.415Z,14.54
2022-10-19T11:53:08.418Z,14.72
2022-10-19T11:54:13.769Z,14.89
2022-10-19T11:55:08.394Z,14.78
2022-10-19T11:56:08.399Z,14.77
2022-10-19T11:57:11.516Z,14.75
2022-10-19T11:58:09.372Z,14.72
2022-10-19T11:59:08.409Z,14.80
2022-10-19T12:00:14.549Z,14.91
2022-10-19T12:01:10.342Z,14.83
2022-10-19T12:02:08.399Z,14.77
2022-10-19T12:03:08.307Z,14.77
2022-10-19T12:04:08.297Z,14.65
2022-10-19T12:05:09.297Z,14.73
2022-10-19T12:06:08.293Z,14.68
2022-10-19T12:07:08.285Z,14.64
2022-10-19T12:08:08.309Z,14.72
2022-10-19T12:09:08.364Z,14.64
2022-10-19T12:10:08.230Z,14.69
2022-10-19T12:11:08.227Z,14.70
2022-10-19T12:12:08.299Z,14.69
2022-10-19T12:13:08.207Z,14.81
2022-10-19T12:14:08.198Z,14.86
2022-10-19T12:15:08.184Z,14.91
2022-10-19T12:16:08.173Z,14.86
2022-10-19T12:17:08.236Z,14.84
2022-10-19T12:18:08.147Z,14.69
2022-10-19T12:19:08.150Z,14.73
2022-10-19T12:20:08.150Z,14.83
2022-10-19T12:21:08.125Z,14.78
2022-10-19T12:22:08.104Z,14.81
2022-10-19T12:23:08.125Z,14.81
2022-10-19T12:24:08.093Z,14.75
2022-10-19T12:25:08.105Z,14.80
2022-10-19T12:26:08.125Z,14.72
2022-10-19T12:27:08.069Z,14.77
2022-10-19T12:28:08.096Z,14.81
2022-10-19T12:29:08.051Z,14.70
2022-10-19T12:30:08.043Z,14.70
2022-10-19T12:31:08.031Z,14.94
2022-10-19T12:32:08.017Z,14.86
2022-10-19T12:33:08.002Z,14.86
2022-10-19T12:34:08.018Z,14.88
2022-10-19T12:35:08.005Z,14.81
2022-10-19T12:36:07.974Z,14.80
2022-10-19T12:37:07.947Z,14.91
2022-10-19T12:38:07.945Z,14.75
2022-10-19T12:39:08.022Z,14.80
2022-10-19T12:40:07.931Z,14.84
2022-10-19T12:41:07.924Z,14.81
2022-10-19T12:42:07.904Z,14.81
2022-10-19T12:43:07.921Z,14.69
2022-10-19T12:44:07.891Z,14.54
2022-10-19T12:45:07.880Z,14.52
2022-10-19T12:46:07.863Z,14.65
2022-10-19T12:47:07.858Z,14.45
2022-10-19T12:48:07.867Z,14.37
2022-10-19T12:49:07.853Z,14.32
2022-10-19T12:50:07.883Z,14.29
2022-10-19T12:51:07.814Z,14.36
2022-10-19T12:52:07.804Z,14.22
2022-10-19T12:53:07.793Z,14.42
2022-10-19T12:54:07.797Z,14.40
2022-10-19T12:55:07.806Z,14.69
2022-10-19T12:56:07.776Z,14.78
2022-10-19T12:57:07.756Z,14.75
2022-10-19T12:58:07.748Z,14.73
2022-10-19T12:59:07.730Z,14.81
2022-10-19T13:00:07.746Z,14.89
2022-10-19T13:01:07.831Z,14.80
2022-10-19T13:02:07.720Z,14.77
2022-10-19T13:03:07.691Z,14.83
2022-10-19T13:04:07.690Z,14.77
2022-10-19T13:05:07.666Z,14.78
2022-10-19T13:06:07.743Z,14.81